sensor_id;sensor_type;location;lat;lon;timestamp;temperature;humidity
54082;DHT22;39986;50.770;0.266;2022-11-20T00:02:20;7.50;99.90
54082;DHT22;39986;50.770;0.266;2022-11-20T00:04:45;8.60;99.90
54082;DHT22;39986;50.770;0.266;2022-11-20T00:07:11;7.60;99.90
54082;DHT22;39986;50.770;0.266;2022-11-20T00:09:37;7.70;99.90
54082;DHT22;39986;50.770;0.266;2022-11-20T00:12:02;7.80;99.90
54082;DHT22;39986;50.770;0.266;2022-11-20T00:14:28;7.90;99.90
54082;DHT22;39986;50.770;0.266;2022-11-20T00:16:54;8.20;99.90
54082;DHT22;39986;50.770;0.266;2022-11-20T00:19:19;7.90;99.90
54082;DHT22;39986;50.770;0.266;2022-11-20T00:21:45;7.90;99.90
54082;DHT22;39986;50.770;0.266;2022-11-20T00:24:10;7.80;99.90
54082;DHT22;39986;50.770;0.266;2022-11-20T00:26:36;7.90;99.90
54082;DHT22;39986;50.770;0.266;2022-11-20T00:29:02;7.90;99.90
54082;DHT22;39986;50.770;0.266;2022-11-20T00:31:28;7.80;99.90
54082;DHT22;39986;50.770;0.266;2022-11-20T00:33:54;7.80;99.90
54082;DHT22;39986;50.770;0.266;2022-11-20T00:36:20;7.90;99.90
54082;DHT22;39986;50.770;0.266;2022-11-20T00:38:46;7.90;99.90
54082;DHT22;39986;50.770;0.266;2022-11-20T00:41:15;7.90;99.90
54082;DHT22;39986;50.770;0.266;2022-11-20T00:43:41;7.90;99.90
54082;DHT22;39986;50.770;0.266;2022-11-20T00:46:12;8.00;99.90
54082;DHT22;39986;50.770;0.266;2022-11-20T00:48:38;7.90;99.90
54082;DHT22;39986;50.770;0.266;2022-11-20T00:51:04;7.90;99.90
54082;DHT22;39986;50.770;0.266;2022-11-20T00:53:29;7.80;99.90
54082;DHT22;39986;50.770;0.266;2022-11-20T00:55:58;7.80;99.90
54082;DHT22;39986;50.770;0.266;2022-11-20T00:58:25;7.80;99.90
54082;DHT22;39986;50.770;0.266;2022-11-20T01:00:50;7.80;99.90
54082;DHT22;39986;50.770;0.266;2022-11-20T01:03:16;7.80;99.90
54082;DHT22;39986;50.770;0.266;2022-11-20T01:05:42;7.70;99.90
54082;DHT22;39986;50.770;0.266;2022-11-20T01:08:08;7.70;99.90
54082;DHT22;39986;50.770;0.266;2022-11-20T01:10:34;7.70;99.90
54082;DHT22;39986;50.770;0.266;2022-11-20T01:13:00;8.40;99.90
54082;DHT22;39986;50.770;0.266;2022-11-20T01:15:44;7.80;99.90
54082;DHT22;39986;50.770;0.266;2022-11-20T01:18:10;7.70;99.90
54082;DHT22;39986;50.770;0.266;2022-11-20T01:20:36;8.00;99.90
54082;DHT22;39986;50.770;0.266;2022-11-20T01:23:02;7.70;99.90
54082;DHT22;39986;50.770;0.266;2022-11-20T01:25:27;7.70;99.90
54082;DHT22;39986;50.770;0.266;2022-11-20T01:27:53;7.70;99.90
54082;DHT22;39986;50.770;0.266;2022-11-20T01:30:18;7.70;99.90
54082;DHT22;39986;50.770;0.266;2022-11-20T01:32:44;7.70;99.90
54082;DHT22;39986;50.770;0.266;2022-11-20T01:35:09;7.80;99.90
54082;DHT22;39986;50.770;0.266;2022-11-20T01:37:35;7.80;99.90
54082;DHT22;39986;50.770;0.266;2022-11-20T01:40:01;8.50;99.90
54082;DHT22;39986;50.770;0.266;2022-11-20T01:42:26;8.10;99.90
54082;DHT22;39986;50.770;0.266;2022-11-20T01:47:55;7.70;99.90
54082;DHT22;39986;50.770;0.266;2022-11-20T01:50:26;7.80;99.90
54082;DHT22;39986;50.770;0.266;2022-11-20T01:52:58;7.80;99.90
54082;DHT22;39986;50.770;0.266;2022-11-20T01:55:28;7.80;99.90
54082;DHT22;39986;50.770;0.266;2022-11-20T01:57:55;7.90;99.90
54082;DHT22;39986;50.770;0.266;2022-11-20T02:00:21;7.90;99.90
54082;DHT22;39986;50.770;0.266;2022-11-20T02:02:53;8.00;99.90
54082;DHT22;39986;50.770;0.266;2022-11-20T02:05:25;8.00;99.90
54082;DHT22;39986;50.770;0.266;2022-11-20T02:07:53;8.10;99.90
54082;DHT22;39986;50.770;0.266;2022-11-20T02:10:21;8.20;99.90
54082;DHT22;39986;50.770;0.266;2022-11-20T02:12:47;8.20;99.90
54082;DHT22;39986;50.770;0.266;2022-11-20T02:15:32;8.80;99.90
54082;DHT22;39986;50.770;0.266;2022-11-20T02:17:57;8.40;99.90
54082;DHT22;39986;50.770;0.266;2022-11-20T02:20:23;8.30;99.90
54082;DHT22;39986;50.770;0.266;2022-11-20T02:22:56;8.50;99.90
54082;DHT22;39986;50.770;0.266;2022-11-20T02:25:23;8.70;99.90
54082;DHT22;39986;50.770;0.266;2022-11-20T02:27:50;9.00;99.90
54082;DHT22;39986;50.770;0.266;2022-11-20T02:30:16;9.30;99.90
54082;DHT22;39986;50.770;0.266;2022-11-20T02:32:41;9.50;99.90
54082;DHT22;39986;50.770;0.266;2022-11-20T02:35:38;9.70;99.90
54082;DHT22;39986;50.770;0.266;2022-11-20T02:37:56;9.60;99.90
54082;DHT22;39986;50.770;0.266;2022-11-20T02:40:23;10.40;99.90
54082;DHT22;39986;50.770;0.266;2022-11-20T02:42:51;9.60;99.90
54082;DHT22;39986;50.770;0.266;2022-11-20T02:45:17;9.50;99.90
54082;DHT22;39986;50.770;0.266;2022-11-20T02:47:42;9.50;99.90
54082;DHT22;39986;50.770;0.266;2022-11-20T02:50:08;9.50;99.90
54082;DHT22;39986;50.770;0.266;2022-11-20T02:52:33;9.40;99.90
54082;DHT22;39986;50.770;0.266;2022-11-20T02:54:59;9.40;99.90
54082;DHT22;39986;50.770;0.266;2022-11-20T02:57:25;9.40;99.90
54082;DHT22;39986;50.770;0.266;2022-11-20T02:59:51;9.40;99.90
54082;DHT22;39986;50.770;0.266;2022-11-20T03:02:16;9.30;99.90
54082;DHT22;39986;50.770;0.266;2022-11-20T03:04:42;9.40;99.90
54082;DHT22;39986;50.770;0.266;2022-11-20T03:07:08;9.40;99.90
54082;DHT22;39986;50.770;0.266;2022-11-20T03:09:33;9.40;99.90
54082;DHT22;39986;50.770;0.266;2022-11-20T03:11:59;9.30;99.90
54082;DHT22;39986;50.770;0.266;2022-11-20T03:14:24;9.30;99.90
54082;DHT22;39986;50.770;0.266;2022-11-20T03:16:50;9.30;99.90
54082;DHT22;39986;50.770;0.266;2022-11-20T03:19:15;10.40;99.90
54082;DHT22;39986;50.770;0.266;2022-11-20T03:21:41;9.30;99.90
54082;DHT22;39986;50.770;0.266;2022-11-20T03:24:06;9.40;99.90
54082;DHT22;39986;50.770;0.266;2022-11-20T03:26:32;9.50;99.90
54082;DHT22;39986;50.770;0.266;2022-11-20T03:28:58;9.50;99.90
54082;DHT22;39986;50.770;0.266;2022-11-20T03:31:27;9.50;99.90
54082;DHT22;39986;50.770;0.266;2022-11-20T03:33:53;9.50;99.90
54082;DHT22;39986;50.770;0.266;2022-11-20T03:36:19;9.80;99.90
54082;DHT22;39986;50.770;0.266;2022-11-20T03:38:45;9.60;99.90
54082;DHT22;39986;50.770;0.266;2022-11-20T03:41:18;9.70;99.90
54082;DHT22;39986;50.770;0.266;2022-11-20T03:43:51;9.70;99.90
54082;DHT22;39986;50.770;0.266;2022-11-20T03:46:17;9.90;99.90
54082;DHT22;39986;50.770;0.266;2022-11-20T03:48:43;10.00;99.90
54082;DHT22;39986;50.770;0.266;2022-11-20T03:51:16;10.30;99.90
54082;DHT22;39986;50.770;0.266;2022-11-20T03:53:43;9.80;99.90
54082;DHT22;39986;50.770;0.266;2022-11-20T03:56:09;9.70;99.90
54082;DHT22;39986;50.770;0.266;2022-11-20T03:58:35;9.60;99.90
54082;DHT22;39986;50.770;0.266;2022-11-20T04:01:06;9.50;99.90
54082;DHT22;39986;50.770;0.266;2022-11-20T04:03:31;9.50;99.90
54082;DHT22;39986;50.770;0.266;2022-11-20T04:08:55;9.40;99.90
54082;DHT22;39986;50.770;0.266;2022-11-20T04:11:22;9.40;99.90
54082;DHT22;39986;50.770;0.266;2022-11-20T04:13:49;9.40;99.90
54082;DHT22;39986;50.770;0.266;2022-11-20T04:16:15;9.40;99.90
54082;DHT22;39986;50.770;0.266;2022-11-20T04:18:41;9.50;99.90
54082;DHT22;39986;50.770;0.266;2022-11-20T04:21:07;9.60;99.90
54082;DHT22;39986;50.770;0.266;2022-11-20T04:23:32;9.40;99.90
54082;DHT22;39986;50.770;0.266;2022-11-20T04:26:00;9.40;99.90
54082;DHT22;39986;50.770;0.266;2022-11-20T04:28:26;9.60;99.90
54082;DHT22;39986;50.770;0.266;2022-11-20T04:30:52;9.40;99.90
54082;DHT22;39986;50.770;0.266;2022-11-20T04:33:17;9.50;99.90
54082;DHT22;39986;50.770;0.266;2022-11-20T04:35:42;9.50;99.90
54082;DHT22;39986;50.770;0.266;2022-11-20T04:38:09;9.50;99.90
54082;DHT22;39986;50.770;0.266;2022-11-20T04:40:35;9.50;99.90
54082;DHT22;39986;50.770;0.266;2022-11-20T04:43:00;9.70;99.90
54082;DHT22;39986;50.770;0.266;2022-11-20T04:45:26;9.80;99.90
54082;DHT22;39986;50.770;0.266;2022-11-20T04:47:51;9.90;99.90
54082;DHT22;39986;50.770;0.266;2022-11-20T04:50:17;10.30;99.90
54082;DHT22;39986;50.770;0.266;2022-11-20T04:52:42;10.40;99.90
54082;DHT22;39986;50.770;0.266;2022-11-20T04:55:08;10.50;99.90
54082;DHT22;39986;50.770;0.266;2022-11-20T04:57:33;10.60;99.90
54082;DHT22;39986;50.770;0.266;2022-11-20T04:59:59;10.60;99.90
54082;DHT22;39986;50.770;0.266;2022-11-20T05:02:24;10.70;99.90
54082;DHT22;39986;50.770;0.266;2022-11-20T05:04:50;10.70;99.90
54082;DHT22;39986;50.770;0.266;2022-11-20T05:07:15;10.80;99.90
54082;DHT22;39986;50.770;0.266;2022-11-20T05:09:41;10.80;99.90
54082;DHT22;39986;50.770;0.266;2022-11-20T05:12:07;10.60;99.90
54082;DHT22;39986;50.770;0.266;2022-11-20T05:14:33;10.50;99.90
54082;DHT22;39986;50.770;0.266;2022-11-20T05:16:58;10.30;99.90
54082;DHT22;39986;50.770;0.266;2022-11-20T05:19:24;10.30;99.90
54082;DHT22;39986;50.770;0.266;2022-11-20T05:21:53;10.20;99.90
54082;DHT22;39986;50.770;0.266;2022-11-20T05:24:19;10.20;99.90
54082;DHT22;39986;50.770;0.266;2022-11-20T05:26:44;10.20;99.90
54082;DHT22;39986;50.770;0.266;2022-11-20T05:29:11;10.70;99.90
54082;DHT22;39986;50.770;0.266;2022-11-20T05:31:38;10.10;99.90
54082;DHT22;39986;50.770;0.266;2022-11-20T05:34:03;10.20;99.90
54082;DHT22;39986;50.770;0.266;2022-11-20T05:36:29;10.10;99.90
54082;DHT22;39986;50.770;0.266;2022-11-20T05:38:55;10.10;99.90
54082;DHT22;39986;50.770;0.266;2022-11-20T05:41:20;10.00;99.90
54082;DHT22;39986;50.770;0.266;2022-11-20T05:43:46;10.00;99.90
54082;DHT22;39986;50.770;0.266;2022-11-20T05:46:12;10.00;99.90
54082;DHT22;39986;50.770;0.266;2022-11-20T05:48:39;10.00;99.90
54082;DHT22;39986;50.770;0.266;2022-11-20T05:51:06;9.90;99.90
54082;DHT22;39986;50.770;0.266;2022-11-20T05:53:33;9.90;99.90
54082;DHT22;39986;50.770;0.266;2022-11-20T05:55:59;10.00;99.90
54082;DHT22;39986;50.770;0.266;2022-11-20T05:58:25;10.10;99.90
54082;DHT22;39986;50.770;0.266;2022-11-20T06:00:51;10.00;99.90
54082;DHT22;39986;50.770;0.266;2022-11-20T06:03:16;10.00;99.90
54082;DHT22;39986;50.770;0.266;2022-11-20T06:05:42;10.00;99.90
54082;DHT22;39986;50.770;0.266;2022-11-20T06:08:07;10.10;99.90
54082;DHT22;39986;50.770;0.266;2022-11-20T06:10:33;10.10;99.90
54082;DHT22;39986;50.770;0.266;2022-11-20T06:12:58;10.00;99.90
54082;DHT22;39986;50.770;0.266;2022-11-20T06:15:24;10.00;99.90
54082;DHT22;39986;50.770;0.266;2022-11-20T06:17:53;10.00;99.90
54082;DHT22;39986;50.770;0.266;2022-11-20T06:20:19;10.10;99.90
54082;DHT22;39986;50.770;0.266;2022-11-20T06:22:44;10.80;99.90
54082;DHT22;39986;50.770;0.266;2022-11-20T06:25:10;10.30;99.90
54082;DHT22;39986;50.770;0.266;2022-11-20T06:27:36;10.10;99.90
54082;DHT22;39986;50.770;0.266;2022-11-20T06:30:01;10.10;99.90
54082;DHT22;39986;50.770;0.266;2022-11-20T06:32:27;10.20;99.90
54082;DHT22;39986;50.770;0.266;2022-11-20T06:34:52;10.20;99.90
54082;DHT22;39986;50.770;0.266;2022-11-20T06:37:18;10.20;99.90
54082;DHT22;39986;50.770;0.266;2022-11-20T06:39:43;10.30;99.90
54082;DHT22;39986;50.770;0.266;2022-11-20T06:42:09;10.10;99.90
54082;DHT22;39986;50.770;0.266;2022-11-20T06:44:34;10.20;99.90
54082;DHT22;39986;50.770;0.266;2022-11-20T06:47:00;10.20;99.90
54082;DHT22;39986;50.770;0.266;2022-11-20T06:49:25;10.20;99.90
54082;DHT22;39986;50.770;0.266;2022-11-20T06:51:51;10.90;99.90
54082;DHT22;39986;50.770;0.266;2022-11-20T06:54:16;10.20;99.90
54082;DHT22;39986;50.770;0.266;2022-11-20T06:56:48;10.10;99.90
54082;DHT22;39986;50.770;0.266;2022-11-20T06:59:14;10.00;99.90
54082;DHT22;39986;50.770;0.266;2022-11-20T07:01:39;10.10;99.90
54082;DHT22;39986;50.770;0.266;2022-11-20T07:04:05;10.10;99.90
54082;DHT22;39986;50.770;0.266;2022-11-20T07:06:30;10.20;99.90
54082;DHT22;39986;50.770;0.266;2022-11-20T07:08:56;10.20;99.90
54082;DHT22;39986;50.770;0.266;2022-11-20T07:11:24;10.20;99.90
54082;DHT22;39986;50.770;0.266;2022-11-20T07:13:50;10.20;99.90
54082;DHT22;39986;50.770;0.266;2022-11-20T07:16:15;10.20;99.90
54082;DHT22;39986;50.770;0.266;2022-11-20T07:18:41;10.20;99.90
54082;DHT22;39986;50.770;0.266;2022-11-20T07:21:08;10.40;99.90
54082;DHT22;39986;50.770;0.266;2022-11-20T07:23:34;10.30;99.90
54082;DHT22;39986;50.770;0.266;2022-11-20T07:26:03;10.30;99.90
54082;DHT22;39986;50.770;0.266;2022-11-20T07:28:32;10.40;99.90
54082;DHT22;39986;50.770;0.266;2022-11-20T07:30:58;10.40;99.90
54082;DHT22;39986;50.770;0.266;2022-11-20T07:33:23;10.90;99.90
54082;DHT22;39986;50.770;0.266;2022-11-20T07:35:49;11.20;99.90
54082;DHT22;39986;50.770;0.266;2022-11-20T07:38:14;10.60;99.90
54082;DHT22;39986;50.770;0.266;2022-11-20T07:40:40;10.60;99.90
54082;DHT22;39986;50.770;0.266;2022-11-20T07:43:05;10.70;99.90
54082;DHT22;39986;50.770;0.266;2022-11-20T07:45:31;10.70;99.90
54082;DHT22;39986;50.770;0.266;2022-11-20T07:47:56;10.80;99.90
54082;DHT22;39986;50.770;0.266;2022-11-20T07:50:22;10.80;99.90
54082;DHT22;39986;50.770;0.266;2022-11-20T07:52:47;10.90;99.90
54082;DHT22;39986;50.770;0.266;2022-11-20T07:55:13;10.90;99.90
54082;DHT22;39986;50.770;0.266;2022-11-20T07:57:39;11.00;99.90
54082;DHT22;39986;50.770;0.266;2022-11-20T08:00:05;11.10;99.90
54082;DHT22;39986;50.770;0.266;2022-11-20T08:02:32;11.00;99.90
54082;DHT22;39986;50.770;0.266;2022-11-20T08:04:57;11.10;99.90
54082;DHT22;39986;50.770;0.266;2022-11-20T08:07:23;11.00;99.90
54082;DHT22;39986;50.770;0.266;2022-11-20T08:09:48;11.10;99.90
54082;DHT22;39986;50.770;0.266;2022-11-20T08:12:19;11.10;99.90
54082;DHT22;39986;50.770;0.266;2022-11-20T08:15:04;11.00;99.90
54082;DHT22;39986;50.770;0.266;2022-11-20T08:17:30;11.00;99.90
54082;DHT22;39986;50.770;0.266;2022-11-20T08:19:55;11.30;99.90
54082;DHT22;39986;50.770;0.266;2022-11-20T08:22:21;11.10;99.90
54082;DHT22;39986;50.770;0.266;2022-11-20T08:24:46;11.10;99.90
54082;DHT22;39986;50.770;0.266;2022-11-20T08:27:13;11.20;99.90
54082;DHT22;39986;50.770;0.266;2022-11-20T08:29:38;11.20;99.90
54082;DHT22;39986;50.770;0.266;2022-11-20T08:32:04;11.20;99.90
54082;DHT22;39986;50.770;0.266;2022-11-20T08:34:29;11.20;99.90
54082;DHT22;39986;50.770;0.266;2022-11-20T08:36:55;11.20;99.90
54082;DHT22;39986;50.770;0.266;2022-11-20T08:39:20;11.20;99.90
54082;DHT22;39986;50.770;0.266;2022-11-20T08:41:46;11.30;99.90
54082;DHT22;39986;50.770;0.266;2022-11-20T08:44:11;11.30;99.90
54082;DHT22;39986;50.770;0.266;2022-11-20T08:46:38;11.40;99.90
54082;DHT22;39986;50.770;0.266;2022-11-20T08:49:05;11.50;99.90
54082;DHT22;39986;50.770;0.266;2022-11-20T08:51:31;11.50;99.90
54082;DHT22;39986;50.770;0.266;2022-11-20T08:53:56;11.50;99.90
54082;DHT22;39986;50.770;0.266;2022-11-20T08:56:22;11.40;99.90
54082;DHT22;39986;50.770;0.266;2022-11-20T08:58:49;11.20;99.90
54082;DHT22;39986;50.770;0.266;2022-11-20T09:01:14;11.00;99.90
54082;DHT22;39986;50.770;0.266;2022-11-20T09:03:41;11.30;99.90
54082;DHT22;39986;50.770;0.266;2022-11-20T09:06:07;12.80;99.90
54082;DHT22;39986;50.770;0.266;2022-11-20T09:08:33;10.90;99.90
54082;DHT22;39986;50.770;0.266;2022-11-20T09:11:01;11.10;99.90
54082;DHT22;39986;50.770;0.266;2022-11-20T09:13:28;11.10;99.90
54082;DHT22;39986;50.770;0.266;2022-11-20T09:15:58;11.30;99.90
54082;DHT22;39986;50.770;0.266;2022-11-20T09:18:24;11.40;99.90
54082;DHT22;39986;50.770;0.266;2022-11-20T09:20:49;11.60;99.90
54082;DHT22;39986;50.770;0.266;2022-11-20T09:23:15;11.90;99.90
54082;DHT22;39986;50.770;0.266;2022-11-20T09:25:41;12.00;99.90
54082;DHT22;39986;50.770;0.266;2022-11-20T09:28:06;11.90;99.90
54082;DHT22;39986;50.770;0.266;2022-11-20T09:30:32;12.10;99.90
54082;DHT22;39986;50.770;0.266;2022-11-20T09:32:57;12.30;99.90
54082;DHT22;39986;50.770;0.266;2022-11-20T09:35:23;13.20;99.90
54082;DHT22;39986;50.770;0.266;2022-11-20T09:37:48;12.90;99.90
54082;DHT22;39986;50.770;0.266;2022-11-20T09:40:19;13.50;99.90
54082;DHT22;39986;50.770;0.266;2022-11-20T09:42:47;13.50;99.90
54082;DHT22;39986;50.770;0.266;2022-11-20T09:45:24;13.70;99.90
54082;DHT22;39986;50.770;0.266;2022-11-20T09:48:07;13.90;99.90
54082;DHT22;39986;50.770;0.266;2022-11-20T09:55:43;14.50;99.90
54082;DHT22;39986;50.770;0.266;2022-11-20T09:58:13;15.10;99.90
54082;DHT22;39986;50.770;0.266;2022-11-20T10:00:41;15.50;99.90
54082;DHT22;39986;50.770;0.266;2022-11-20T10:10:58;20.50;99.90
54082;DHT22;39986;50.770;0.266;2022-11-20T10:18:39;23.70;99.90
54082;DHT22;39986;50.770;0.266;2022-11-20T10:21:17;24.10;99.90
54082;DHT22;39986;50.770;0.266;2022-11-20T10:26:26;25.10;99.90
54082;DHT22;39986;50.770;0.266;2022-11-20T10:28:56;23.90;99.90
54082;DHT22;39986;50.770;0.266;2022-11-20T10:31:48;22.50;99.90
54082;DHT22;39986;50.770;0.266;2022-11-20T10:34:15;21.00;99.90
54082;DHT22;39986;50.770;0.266;2022-11-20T10:36:46;19.90;99.90
54082;DHT22;39986;50.770;0.266;2022-11-20T10:39:35;19.20;99.90
54082;DHT22;39986;50.770;0.266;2022-11-20T10:42:03;19.40;99.90
54082;DHT22;39986;50.770;0.266;2022-11-20T10:44:33;21.00;99.90
54082;DHT22;39986;50.770;0.266;2022-11-20T10:47:18;22.30;99.90
54082;DHT22;39986;50.770;0.266;2022-11-20T10:49:45;24.00;99.90
54082;DHT22;39986;50.770;0.266;2022-11-20T10:54:46;26.40;98.20
54082;DHT22;39986;50.770;0.266;2022-11-20T10:59:55;26.60;96.30
54082;DHT22;39986;50.770;0.266;2022-11-20T11:02:30;26.80;96.00
54082;DHT22;39986;50.770;0.266;2022-11-20T11:04:56;27.00;94.90
54082;DHT22;39986;50.770;0.266;2022-11-20T11:07:27;27.00;94.20
54082;DHT22;39986;50.770;0.266;2022-11-20T11:09:54;27.00;93.60
54082;DHT22;39986;50.770;0.266;2022-11-20T11:12:21;26.80;93.40
54082;DHT22;39986;50.770;0.266;2022-11-20T11:14:51;26.00;93.60
54082;DHT22;39986;50.770;0.266;2022-11-20T11:17:24;25.70;94.80
54082;DHT22;39986;50.770;0.266;2022-11-20T11:22:23;25.40;94.00
54082;DHT22;39986;50.770;0.266;2022-11-20T11:24:52;24.00;95.80
54082;DHT22;39986;50.770;0.266;2022-11-20T11:27:18;22.10;99.30
54082;DHT22;39986;50.770;0.266;2022-11-20T11:29:44;20.80;99.90
54082;DHT22;39986;50.770;0.266;2022-11-20T11:32:13;20.00;99.90
54082;DHT22;39986;50.770;0.266;2022-11-20T11:34:39;19.60;99.90
54082;DHT22;39986;50.770;0.266;2022-11-20T11:37:04;19.20;99.90
54082;DHT22;39986;50.770;0.266;2022-11-20T11:39:36;19.20;99.90
54082;DHT22;39986;50.770;0.266;2022-11-20T11:42:07;19.70;99.90
54082;DHT22;39986;50.770;0.266;2022-11-20T11:44:35;20.00;99.90
54082;DHT22;39986;50.770;0.266;2022-11-20T11:47:26;20.30;99.90
54082;DHT22;39986;50.770;0.266;2022-11-20T11:50:28;20.00;99.90
54082;DHT22;39986;50.770;0.266;2022-11-20T11:57:54;22.00;99.90
54082;DHT22;39986;50.770;0.266;2022-11-20T12:00:21;23.40;99.50
54082;DHT22;39986;50.770;0.266;2022-11-20T12:03:06;25.10;96.40
54082;DHT22;39986;50.770;0.266;2022-11-20T12:08:10;28.60;90.80
54082;DHT22;39986;50.770;0.266;2022-11-20T12:13:37;30.40;77.10
54082;DHT22;39986;50.770;0.266;2022-11-20T12:16:05;30.50;74.50
54082;DHT22;39986;50.770;0.266;2022-11-20T12:18:30;30.40;72.60
54082;DHT22;39986;50.770;0.266;2022-11-20T12:26:31;30.50;68.00
54082;DHT22;39986;50.770;0.266;2022-11-20T12:31:52;30.60;67.00
54082;DHT22;39986;50.770;0.266;2022-11-20T12:34:22;31.00;66.10
54082;DHT22;39986;50.770;0.266;2022-11-20T12:36:52;31.10;64.70
54082;DHT22;39986;50.770;0.266;2022-11-20T12:39:22;29.90;64.40
54082;DHT22;39986;50.770;0.266;2022-11-20T12:42:24;29.60;64.80
54082;DHT22;39986;50.770;0.266;2022-11-20T12:45:21;30.00;63.10
54082;DHT22;39986;50.770;0.266;2022-11-20T12:51:15;32.40;61.10
54082;DHT22;39986;50.770;0.266;2022-11-20T12:53:20;33.60;58.70
54082;DHT22;39986;50.770;0.266;2022-11-20T13:06:41;35.30;53.50
54082;DHT22;39986;50.770;0.266;2022-11-20T13:09:17;33.70;54.00
54082;DHT22;39986;50.770;0.266;2022-11-20T13:19:31;30.80;58.40
54082;DHT22;39986;50.770;0.266;2022-11-20T13:21:57;30.50;57.90
54082;DHT22;39986;50.770;0.266;2022-11-20T13:24:24;30.00;57.80
54082;DHT22;39986;50.770;0.266;2022-11-20T13:29:33;28.50;61.50
54082;DHT22;39986;50.770;0.266;2022-11-20T13:32:06;29.40;61.40
54082;DHT22;39986;50.770;0.266;2022-11-20T13:34:38;29.80;59.60
54082;DHT22;39986;50.770;0.266;2022-11-20T13:37:03;29.80;58.10
54082;DHT22;39986;50.770;0.266;2022-11-20T13:39:30;29.80;58.10
54082;DHT22;39986;50.770;0.266;2022-11-20T13:42:43;29.70;58.70
54082;DHT22;39986;50.770;0.266;2022-11-20T13:44:42;29.50;59.60
54082;DHT22;39986;50.770;0.266;2022-11-20T13:47:25;28.80;58.90
54082;DHT22;39986;50.770;0.266;2022-11-20T13:49:51;28.70;61.20
54082;DHT22;39986;50.770;0.266;2022-11-20T14:02:38;27.70;61.00
54082;DHT22;39986;50.770;0.266;2022-11-20T14:05:03;26.60;62.70
54082;DHT22;39986;50.770;0.266;2022-11-20T14:07:37;25.20;68.10
54082;DHT22;39986;50.770;0.266;2022-11-20T14:10:04;24.70;67.40
54082;DHT22;39986;50.770;0.266;2022-11-20T14:12:33;23.20;72.90
54082;DHT22;39986;50.770;0.266;2022-11-20T14:14:59;21.30;83.40
54082;DHT22;39986;50.770;0.266;2022-11-20T14:19:53;19.00;94.30
54082;DHT22;39986;50.770;0.266;2022-11-20T14:22:21;18.30;97.00
54082;DHT22;39986;50.770;0.266;2022-11-20T14:24:47;17.90;99.50
54082;DHT22;39986;50.770;0.266;2022-11-20T14:27:14;18.20;99.90
54082;DHT22;39986;50.770;0.266;2022-11-20T14:29:39;18.40;99.70
54082;DHT22;39986;50.770;0.266;2022-11-20T14:32:08;18.30;99.00
54082;DHT22;39986;50.770;0.266;2022-11-20T14:34:36;17.90;99.10
54082;DHT22;39986;50.770;0.266;2022-11-20T14:37:03;17.20;99.90
54082;DHT22;39986;50.770;0.266;2022-11-20T14:39:33;16.60;99.90
54082;DHT22;39986;50.770;0.266;2022-11-20T14:41:59;16.10;99.90
54082;DHT22;39986;50.770;0.266;2022-11-20T14:44:29;15.70;99.90
54082;DHT22;39986;50.770;0.266;2022-11-20T14:46:57;15.40;99.90
54082;DHT22;39986;50.770;0.266;2022-11-20T14:49:23;15.20;99.90
54082;DHT22;39986;50.770;0.266;2022-11-20T14:51:58;15.00;99.90
54082;DHT22;39986;50.770;0.266;2022-11-20T14:54:24;15.40;99.90
54082;DHT22;39986;50.770;0.266;2022-11-20T14:56:58;15.50;99.90
54082;DHT22;39986;50.770;0.266;2022-11-20T14:59:25;15.60;99.90
54082;DHT22;39986;50.770;0.266;2022-11-20T15:02:04;15.30;99.90
54082;DHT22;39986;50.770;0.266;2022-11-20T15:04:30;15.10;99.90
54082;DHT22;39986;50.770;0.266;2022-11-20T15:06:56;14.90;99.90
54082;DHT22;39986;50.770;0.266;2022-11-20T15:09:22;14.80;99.90
54082;DHT22;39986;50.770;0.266;2022-11-20T15:11:56;14.60;99.90
54082;DHT22;39986;50.770;0.266;2022-11-20T15:14:23;14.40;99.90
54082;DHT22;39986;50.770;0.266;2022-11-20T15:16:49;14.20;99.90
54082;DHT22;39986;50.770;0.266;2022-11-20T15:19:17;14.10;99.90
54082;DHT22;39986;50.770;0.266;2022-11-20T15:21:43;14.00;99.90
54082;DHT22;39986;50.770;0.266;2022-11-20T15:24:08;13.80;99.90
54082;DHT22;39986;50.770;0.266;2022-11-20T15:26:34;13.80;99.90
54082;DHT22;39986;50.770;0.266;2022-11-20T15:29:00;13.70;99.90
54082;DHT22;39986;50.770;0.266;2022-11-20T15:31:25;13.50;99.90
54082;DHT22;39986;50.770;0.266;2022-11-20T15:33:51;13.60;99.90
54082;DHT22;39986;50.770;0.266;2022-11-20T15:36:16;13.30;99.90
54082;DHT22;39986;50.770;0.266;2022-11-20T15:38:42;13.30;99.90
54082;DHT22;39986;50.770;0.266;2022-11-20T15:41:07;13.20;99.90
54082;DHT22;39986;50.770;0.266;2022-11-20T15:43:33;13.20;99.90
54082;DHT22;39986;50.770;0.266;2022-11-20T15:45:59;13.20;99.90
54082;DHT22;39986;50.770;0.266;2022-11-20T15:48:27;13.20;99.90
54082;DHT22;39986;50.770;0.266;2022-11-20T15:53:37;12.90;99.90
54082;DHT22;39986;50.770;0.266;2022-11-20T15:56:03;12.90;99.90
54082;DHT22;39986;50.770;0.266;2022-11-20T15:58:29;12.80;99.90
54082;DHT22;39986;50.770;0.266;2022-11-20T16:00:54;13.00;99.90
54082;DHT22;39986;50.770;0.266;2022-11-20T16:03:20;12.70;99.90
54082;DHT22;39986;50.770;0.266;2022-11-20T16:05:45;12.60;99.90
54082;DHT22;39986;50.770;0.266;2022-11-20T16:08:11;12.50;99.90
54082;DHT22;39986;50.770;0.266;2022-11-20T16:10:37;12.50;99.90
54082;DHT22;39986;50.770;0.266;2022-11-20T16:13:03;12.40;99.90
54082;DHT22;39986;50.770;0.266;2022-11-20T16:15:50;12.30;99.90
54082;DHT22;39986;50.770;0.266;2022-11-20T16:18:17;12.30;99.90
54082;DHT22;39986;50.770;0.266;2022-11-20T16:20:44;12.30;99.90
54082;DHT22;39986;50.770;0.266;2022-11-20T16:23:13;12.30;99.90
54082;DHT22;39986;50.770;0.266;2022-11-20T16:25:41;12.20;99.90
54082;DHT22;39986;50.770;0.266;2022-11-20T16:28:06;12.20;99.90
54082;DHT22;39986;50.770;0.266;2022-11-20T16:30:32;12.30;99.90
54082;DHT22;39986;50.770;0.266;2022-11-20T16:32:58;12.10;99.90
54082;DHT22;39986;50.770;0.266;2022-11-20T16:35:25;12.20;99.90
54082;DHT22;39986;50.770;0.266;2022-11-20T16:37:51;12.30;99.90
54082;DHT22;39986;50.770;0.266;2022-11-20T16:40:16;12.30;99.90
54082;DHT22;39986;50.770;0.266;2022-11-20T16:42:42;12.30;99.90
54082;DHT22;39986;50.770;0.266;2022-11-20T16:45:07;12.30;99.90
54082;DHT22;39986;50.770;0.266;2022-11-20T16:47:33;12.30;99.90
54082;DHT22;39986;50.770;0.266;2022-11-20T16:49:59;12.30;99.90
54082;DHT22;39986;50.770;0.266;2022-11-20T16:52:25;12.30;99.90
54082;DHT22;39986;50.770;0.266;2022-11-20T16:55:15;12.30;99.90
54082;DHT22;39986;50.770;0.266;2022-11-20T16:57:41;12.30;99.90
54082;DHT22;39986;50.770;0.266;2022-11-20T17:00:07;12.30;99.90
54082;DHT22;39986;50.770;0.266;2022-11-20T17:02:32;12.20;99.90
54082;DHT22;39986;50.770;0.266;2022-11-20T17:04:58;12.20;99.90
54082;DHT22;39986;50.770;0.266;2022-11-20T17:07:23;12.10;99.90
54082;DHT22;39986;50.770;0.266;2022-11-20T17:09:50;12.00;99.90
54082;DHT22;39986;50.770;0.266;2022-11-20T17:12:16;11.90;99.90